Аэропорт: Петропавловск. Петропавловск

ICAO: UACP

METAR:
2024-04-22 22:30:00
UACP 222230Z 04004MPS CAVOK 06/M00 Q1027 NOSIG RMK QFE757/1010
TAF:
2024-04-22 20:00:00
TAF UACP 222000Z 2221/2306 06007G12MPS 9999 BKN030 
  TEMPO 2221/2300 01008MPS 
  BECMG 2300/2301 OVC020